sensor_id;sensor_type;location;lat;lon;timestamp;P1;durP1;ratioP1;P2;durP2;ratioP2
44476;SDS011;30180;44.788;10.366;2022-07-05T00:00:35;3.08;;;1.90;;
44476;SDS011;30180;44.788;10.366;2022-07-05T00:03:03;4.88;;;2.10;;
44476;SDS011;30180;44.788;10.366;2022-07-05T00:05:31;2.70;;;1.55;;
44476;SDS011;30180;44.788;10.366;2022-07-05T00:08:00;2.95;;;1.75;;
44476;SDS011;30180;44.788;10.366;2022-07-05T00:10:28;3.25;;;1.60;;
44476;SDS011;30180;44.788;10.366;2022-07-05T00:12:58;4.32;;;2.00;;
44476;SDS011;30180;44.788;10.366;2022-07-05T00:15:26;4.60;;;1.80;;
44476;SDS011;30180;44.788;10.366;2022-07-05T00:17:54;4.15;;;2.00;;
44476;SDS011;30180;44.788;10.366;2022-07-05T00:20:23;4.63;;;1.98;;
44476;SDS011;30180;44.788;10.366;2022-07-05T00:22:51;3.53;;;1.50;;
44476;SDS011;30180;44.788;10.366;2022-07-05T00:25:20;4.13;;;1.92;;
44476;SDS011;30180;44.788;10.366;2022-07-05T00:27:48;4.80;;;1.80;;
44476;SDS011;30180;44.788;10.366;2022-07-05T00:30:17;2.95;;;1.90;;
44476;SDS011;30180;44.788;10.366;2022-07-05T00:32:46;2.40;;;1.50;;
44476;SDS011;30180;44.788;10.366;2022-07-05T00:35:14;2.45;;;1.83;;
44476;SDS011;30180;44.788;10.366;2022-07-05T00:37:42;3.20;;;1.77;;
44476;SDS011;30180;44.788;10.366;2022-07-05T00:40:11;4.97;;;1.80;;
44476;SDS011;30180;44.788;10.366;2022-07-05T00:42:39;3.33;;;1.70;;
44476;SDS011;30180;44.788;10.366;2022-07-05T00:45:08;6.97;;;2.20;;
44476;SDS011;30180;44.788;10.366;2022-07-05T00:47:38;4.35;;;1.73;;
44476;SDS011;30180;44.788;10.366;2022-07-05T00:50:06;3.60;;;1.80;;
44476;SDS011;30180;44.788;10.366;2022-07-05T00:52:36;4.32;;;1.70;;
44476;SDS011;30180;44.788;10.366;2022-07-05T00:55:04;3.67;;;1.75;;
44476;SDS011;30180;44.788;10.366;2022-07-05T00:57:33;5.22;;;2.00;;
44476;SDS011;30180;44.788;10.366;2022-07-05T01:00:02;4.85;;;1.88;;
44476;SDS011;30180;44.788;10.366;2022-07-05T01:02:32;3.60;;;1.90;;
44476;SDS011;30180;44.788;10.366;2022-07-05T01:05:02;6.10;;;1.90;;
44476;SDS011;30180;44.788;10.366;2022-07-05T01:07:31;4.57;;;1.98;;
44476;SDS011;30180;44.788;10.366;2022-07-05T01:10:00;6.63;;;2.35;;
44476;SDS011;30180;44.788;10.366;2022-07-05T01:12:28;5.32;;;2.40;;
44476;SDS011;30180;44.788;10.366;2022-07-05T01:14:56;6.70;;;2.50;;
44476;SDS011;30180;44.788;10.366;2022-07-05T01:17:25;5.32;;;2.28;;
44476;SDS011;30180;44.788;10.366;2022-07-05T01:19:55;5.35;;;2.38;;
44476;SDS011;30180;44.788;10.366;2022-07-05T01:22:25;7.60;;;2.83;;
44476;SDS011;30180;44.788;10.366;2022-07-05T01:24:55;5.60;;;3.00;;
44476;SDS011;30180;44.788;10.366;2022-07-05T01:27:24;6.80;;;2.57;;
44476;SDS011;30180;44.788;10.366;2022-07-05T01:29:52;7.38;;;3.10;;
44476;SDS011;30180;44.788;10.366;2022-07-05T01:32:20;7.15;;;3.35;;
44476;SDS011;30180;44.788;10.366;2022-07-05T01:34:49;6.47;;;3.10;;
44476;SDS011;30180;44.788;10.366;2022-07-05T01:37:17;5.80;;;3.05;;
44476;SDS011;30180;44.788;10.366;2022-07-05T01:39:45;5.47;;;2.95;;
44476;SDS011;30180;44.788;10.366;2022-07-05T01:42:15;7.53;;;3.22;;
44476;SDS011;30180;44.788;10.366;2022-07-05T01:44:44;5.53;;;2.60;;
44476;SDS011;30180;44.788;10.366;2022-07-05T01:47:13;4.93;;;2.88;;
44476;SDS011;30180;44.788;10.366;2022-07-05T01:49:45;8.43;;;3.92;;
44476;SDS011;30180;44.788;10.366;2022-07-05T01:52:16;6.70;;;2.90;;
44476;SDS011;30180;44.788;10.366;2022-07-05T01:54:47;7.53;;;3.00;;
44476;SDS011;30180;44.788;10.366;2022-07-05T01:57:16;5.47;;;3.05;;
44476;SDS011;30180;44.788;10.366;2022-07-05T01:59:45;5.90;;;2.78;;
44476;SDS011;30180;44.788;10.366;2022-07-05T02:02:14;6.43;;;2.90;;
44476;SDS011;30180;44.788;10.366;2022-07-05T02:04:46;6.35;;;3.00;;
44476;SDS011;30180;44.788;10.366;2022-07-05T02:07:15;5.22;;;3.03;;
44476;SDS011;30180;44.788;10.366;2022-07-05T02:09:43;6.63;;;3.05;;
44476;SDS011;30180;44.788;10.366;2022-07-05T02:12:12;5.65;;;2.80;;
44476;SDS011;30180;44.788;10.366;2022-07-05T02:14:41;8.15;;;2.58;;
44476;SDS011;30180;44.788;10.366;2022-07-05T02:17:10;5.75;;;2.90;;
44476;SDS011;30180;44.788;10.366;2022-07-05T02:19:38;5.35;;;3.20;;
44476;SDS011;30180;44.788;10.366;2022-07-05T02:22:07;6.43;;;3.17;;
44476;SDS011;30180;44.788;10.366;2022-07-05T02:24:35;5.95;;;2.95;;
44476;SDS011;30180;44.788;10.366;2022-07-05T02:27:03;8.13;;;2.85;;
44476;SDS011;30180;44.788;10.366;2022-07-05T02:29:32;9.05;;;3.28;;
44476;SDS011;30180;44.788;10.366;2022-07-05T02:32:02;5.93;;;3.20;;
44476;SDS011;30180;44.788;10.366;2022-07-05T02:34:30;5.82;;;2.90;;
44476;SDS011;30180;44.788;10.366;2022-07-05T02:36:59;5.70;;;3.05;;
44476;SDS011;30180;44.788;10.366;2022-07-05T02:39:27;7.20;;;3.20;;
44476;SDS011;30180;44.788;10.366;2022-07-05T02:41:55;6.25;;;3.13;;
44476;SDS011;30180;44.788;10.366;2022-07-05T02:44:23;6.40;;;3.15;;
44476;SDS011;30180;44.788;10.366;2022-07-05T02:46:51;6.80;;;3.17;;
44476;SDS011;30180;44.788;10.366;2022-07-05T02:49:21;6.68;;;2.92;;
44476;SDS011;30180;44.788;10.366;2022-07-05T02:51:49;5.07;;;3.42;;
44476;SDS011;30180;44.788;10.366;2022-07-05T02:54:17;7.07;;;2.80;;
44476;SDS011;30180;44.788;10.366;2022-07-05T02:56:45;5.25;;;3.25;;
44476;SDS011;30180;44.788;10.366;2022-07-05T02:59:13;8.95;;;3.28;;
44476;SDS011;30180;44.788;10.366;2022-07-05T03:01:42;6.43;;;3.35;;
44476;SDS011;30180;44.788;10.366;2022-07-05T03:04:10;7.65;;;3.30;;
44476;SDS011;30180;44.788;10.366;2022-07-05T03:06:40;6.97;;;3.15;;
44476;SDS011;30180;44.788;10.366;2022-07-05T03:09:10;7.78;;;3.22;;
44476;SDS011;30180;44.788;10.366;2022-07-05T03:11:38;5.57;;;2.75;;
44476;SDS011;30180;44.788;10.366;2022-07-05T03:14:06;5.07;;;3.00;;
44476;SDS011;30180;44.788;10.366;2022-07-05T03:16:35;7.50;;;3.33;;
44476;SDS011;30180;44.788;10.366;2022-07-05T03:19:04;8.20;;;3.43;;
44476;SDS011;30180;44.788;10.366;2022-07-05T03:21:33;4.68;;;2.90;;
44476;SDS011;30180;44.788;10.366;2022-07-05T03:24:03;7.63;;;3.13;;
44476;SDS011;30180;44.788;10.366;2022-07-05T03:26:31;6.03;;;3.25;;
44476;SDS011;30180;44.788;10.366;2022-07-05T03:28:59;7.40;;;2.97;;
44476;SDS011;30180;44.788;10.366;2022-07-05T03:31:27;6.30;;;3.10;;
44476;SDS011;30180;44.788;10.366;2022-07-05T03:33:56;6.07;;;2.78;;
44476;SDS011;30180;44.788;10.366;2022-07-05T03:36:24;7.65;;;3.10;;
44476;SDS011;30180;44.788;10.366;2022-07-05T03:38:52;10.15;;;3.67;;
44476;SDS011;30180;44.788;10.366;2022-07-05T03:41:22;9.68;;;3.33;;
44476;SDS011;30180;44.788;10.366;2022-07-05T03:43:50;7.78;;;3.45;;
44476;SDS011;30180;44.788;10.366;2022-07-05T03:46:18;7.65;;;3.28;;
44476;SDS011;30180;44.788;10.366;2022-07-05T03:48:47;7.30;;;3.30;;
44476;SDS011;30180;44.788;10.366;2022-07-05T03:51:15;8.73;;;4.05;;
44476;SDS011;30180;44.788;10.366;2022-07-05T03:53:43;8.70;;;3.33;;
44476;SDS011;30180;44.788;10.366;2022-07-05T03:56:12;6.65;;;3.80;;
44476;SDS011;30180;44.788;10.366;2022-07-05T03:58:42;7.97;;;3.80;;
44476;SDS011;30180;44.788;10.366;2022-07-05T04:01:10;7.38;;;3.60;;
44476;SDS011;30180;44.788;10.366;2022-07-05T04:03:38;4.95;;;3.28;;
44476;SDS011;30180;44.788;10.366;2022-07-05T04:06:07;5.55;;;3.60;;
44476;SDS011;30180;44.788;10.366;2022-07-05T04:08:35;5.85;;;3.42;;
44476;SDS011;30180;44.788;10.366;2022-07-05T04:11:04;6.03;;;3.03;;
44476;SDS011;30180;44.788;10.366;2022-07-05T04:13:34;5.80;;;3.13;;
44476;SDS011;30180;44.788;10.366;2022-07-05T04:16:04;7.35;;;3.10;;
44476;SDS011;30180;44.788;10.366;2022-07-05T04:18:32;7.15;;;3.58;;
44476;SDS011;30180;44.788;10.366;2022-07-05T04:21:00;6.88;;;3.22;;
44476;SDS011;30180;44.788;10.366;2022-07-05T04:23:29;7.40;;;3.20;;
44476;SDS011;30180;44.788;10.366;2022-07-05T04:25:57;5.38;;;3.15;;
44476;SDS011;30180;44.788;10.366;2022-07-05T04:28:27;11.95;;;3.40;;
44476;SDS011;30180;44.788;10.366;2022-07-05T04:30:56;6.45;;;3.20;;
44476;SDS011;30180;44.788;10.366;2022-07-05T04:33:26;10.55;;;3.03;;
44476;SDS011;30180;44.788;10.366;2022-07-05T04:35:54;4.82;;;2.92;;
44476;SDS011;30180;44.788;10.366;2022-07-05T04:38:22;4.38;;;2.85;;
44476;SDS011;30180;44.788;10.366;2022-07-05T04:40:50;5.00;;;3.10;;
44476;SDS011;30180;44.788;10.366;2022-07-05T04:43:19;7.85;;;3.05;;
44476;SDS011;30180;44.788;10.366;2022-07-05T04:45:47;6.93;;;2.90;;
44476;SDS011;30180;44.788;10.366;2022-07-05T04:48:21;5.53;;;2.50;;
44476;SDS011;30180;44.788;10.366;2022-07-05T04:50:51;7.03;;;2.42;;
44476;SDS011;30180;44.788;10.366;2022-07-05T04:53:20;7.93;;;2.50;;
44476;SDS011;30180;44.788;10.366;2022-07-05T04:55:48;5.57;;;2.70;;
44476;SDS011;30180;44.788;10.366;2022-07-05T04:58:16;5.53;;;2.85;;
44476;SDS011;30180;44.788;10.366;2022-07-05T05:00:44;4.65;;;2.45;;
44476;SDS011;30180;44.788;10.366;2022-07-05T05:03:12;5.47;;;2.50;;
44476;SDS011;30180;44.788;10.366;2022-07-05T05:05:41;5.38;;;2.50;;
44476;SDS011;30180;44.788;10.366;2022-07-05T05:08:11;3.90;;;2.33;;
44476;SDS011;30180;44.788;10.366;2022-07-05T05:10:39;5.95;;;2.40;;
44476;SDS011;30180;44.788;10.366;2022-07-05T05:13:07;5.85;;;3.00;;
44476;SDS011;30180;44.788;10.366;2022-07-05T05:15:35;6.38;;;3.15;;
44476;SDS011;30180;44.788;10.366;2022-07-05T05:18:04;5.70;;;3.00;;
44476;SDS011;30180;44.788;10.366;2022-07-05T05:20:32;7.47;;;3.20;;
44476;SDS011;30180;44.788;10.366;2022-07-05T05:23:05;5.80;;;3.33;;
44476;SDS011;30180;44.788;10.366;2022-07-05T05:25:35;9.65;;;3.45;;
44476;SDS011;30180;44.788;10.366;2022-07-05T05:28:04;5.13;;;3.30;;
44476;SDS011;30180;44.788;10.366;2022-07-05T05:30:32;8.80;;;3.47;;
44476;SDS011;30180;44.788;10.366;2022-07-05T05:33:00;5.53;;;3.10;;
44476;SDS011;30180;44.788;10.366;2022-07-05T05:35:28;7.50;;;2.95;;
44476;SDS011;30180;44.788;10.366;2022-07-05T05:37:57;6.22;;;2.80;;
44476;SDS011;30180;44.788;10.366;2022-07-05T05:40:25;5.57;;;2.80;;
44476;SDS011;30180;44.788;10.366;2022-07-05T05:42:56;6.85;;;2.83;;
44476;SDS011;30180;44.788;10.366;2022-07-05T05:45:24;4.57;;;2.25;;
44476;SDS011;30180;44.788;10.366;2022-07-05T05:47:53;8.07;;;2.17;;
44476;SDS011;30180;44.788;10.366;2022-07-05T05:50:23;6.30;;;2.27;;
44476;SDS011;30180;44.788;10.366;2022-07-05T05:52:52;3.60;;;1.88;;
44476;SDS011;30180;44.788;10.366;2022-07-05T05:55:21;5.68;;;2.50;;
44476;SDS011;30180;44.788;10.366;2022-07-05T05:57:52;5.53;;;2.03;;
44476;SDS011;30180;44.788;10.366;2022-07-05T06:00:22;4.95;;;1.90;;
44476;SDS011;30180;44.788;10.366;2022-07-05T06:02:50;4.63;;;2.33;;
44476;SDS011;30180;44.788;10.366;2022-07-05T06:05:19;4.20;;;1.90;;
44476;SDS011;30180;44.788;10.366;2022-07-05T06:07:48;5.03;;;2.10;;
44476;SDS011;30180;44.788;10.366;2022-07-05T06:12:46;4.65;;;1.90;;
44476;SDS011;30180;44.788;10.366;2022-07-05T06:15:16;6.05;;;1.90;;
44476;SDS011;30180;44.788;10.366;2022-07-05T06:17:46;4.95;;;2.25;;
44476;SDS011;30180;44.788;10.366;2022-07-05T06:20:15;3.40;;;1.80;;
44476;SDS011;30180;44.788;10.366;2022-07-05T06:22:44;4.30;;;1.90;;
44476;SDS011;30180;44.788;10.366;2022-07-05T06:25:13;4.68;;;2.10;;
44476;SDS011;30180;44.788;10.366;2022-07-05T06:27:50;4.78;;;2.05;;
44476;SDS011;30180;44.788;10.366;2022-07-05T06:30:20;4.28;;;1.52;;
44476;SDS011;30180;44.788;10.366;2022-07-05T06:32:53;5.25;;;1.60;;
44476;SDS011;30180;44.788;10.366;2022-07-05T06:35:22;3.13;;;1.60;;
44476;SDS011;30180;44.788;10.366;2022-07-05T06:37:51;5.03;;;1.98;;
44476;SDS011;30180;44.788;10.366;2022-07-05T06:40:20;4.47;;;1.90;;
44476;SDS011;30180;44.788;10.366;2022-07-05T06:42:49;4.85;;;2.22;;
44476;SDS011;30180;44.788;10.366;2022-07-05T06:45:18;5.75;;;2.05;;
44476;SDS011;30180;44.788;10.366;2022-07-05T06:47:55;5.88;;;2.28;;
44476;SDS011;30180;44.788;10.366;2022-07-05T06:50:24;5.15;;;2.20;;
44476;SDS011;30180;44.788;10.366;2022-07-05T06:52:52;6.70;;;1.90;;
44476;SDS011;30180;44.788;10.366;2022-07-05T06:55:21;4.90;;;1.95;;
44476;SDS011;30180;44.788;10.366;2022-07-05T06:57:55;3.28;;;1.80;;
44476;SDS011;30180;44.788;10.366;2022-07-05T07:00:41;5.05;;;2.10;;
44476;SDS011;30180;44.788;10.366;2022-07-05T07:03:31;3.53;;;1.90;;
44476;SDS011;30180;44.788;10.366;2022-07-05T07:06:19;9.52;;;2.25;;
44476;SDS011;30180;44.788;10.366;2022-07-05T07:08:48;5.30;;;2.20;;
44476;SDS011;30180;44.788;10.366;2022-07-05T07:11:33;5.10;;;1.88;;
44476;SDS011;30180;44.788;10.366;2022-07-05T07:14:01;6.35;;;2.33;;
44476;SDS011;30180;44.788;10.366;2022-07-05T07:16:29;3.30;;;1.77;;
44476;SDS011;30180;44.788;10.366;2022-07-05T07:18:59;3.45;;;2.20;;
44476;SDS011;30180;44.788;10.366;2022-07-05T07:21:38;4.65;;;2.20;;
44476;SDS011;30180;44.788;10.366;2022-07-05T07:24:07;4.82;;;2.25;;
44476;SDS011;30180;44.788;10.366;2022-07-05T07:26:36;5.10;;;2.55;;
44476;SDS011;30180;44.788;10.366;2022-07-05T07:29:22;4.95;;;2.30;;
44476;SDS011;30180;44.788;10.366;2022-07-05T07:31:50;5.00;;;2.17;;
44476;SDS011;30180;44.788;10.366;2022-07-05T07:34:20;4.95;;;2.60;;
44476;SDS011;30180;44.788;10.366;2022-07-05T07:36:48;5.93;;;2.50;;
44476;SDS011;30180;44.788;10.366;2022-07-05T07:39:17;3.67;;;2.17;;
44476;SDS011;30180;44.788;10.366;2022-07-05T07:41:45;5.30;;;2.55;;
44476;SDS011;30180;44.788;10.366;2022-07-05T07:44:14;6.15;;;2.47;;
44476;SDS011;30180;44.788;10.366;2022-07-05T07:46:43;5.88;;;2.70;;
44476;SDS011;30180;44.788;10.366;2022-07-05T07:49:11;7.30;;;2.63;;
44476;SDS011;30180;44.788;10.366;2022-07-05T07:51:41;3.85;;;2.53;;
44476;SDS011;30180;44.788;10.366;2022-07-05T07:54:10;5.70;;;2.50;;
44476;SDS011;30180;44.788;10.366;2022-07-05T07:56:38;5.72;;;3.45;;
44476;SDS011;30180;44.788;10.366;2022-07-05T07:59:06;4.00;;;2.78;;
44476;SDS011;30180;44.788;10.366;2022-07-05T08:01:34;4.80;;;2.63;;
44476;SDS011;30180;44.788;10.366;2022-07-05T08:04:10;8.32;;;2.72;;
44476;SDS011;30180;44.788;10.366;2022-07-05T08:06:42;5.15;;;2.97;;
44476;SDS011;30180;44.788;10.366;2022-07-05T08:09:10;5.95;;;3.03;;
44476;SDS011;30180;44.788;10.366;2022-07-05T08:11:43;6.45;;;3.42;;
44476;SDS011;30180;44.788;10.366;2022-07-05T08:14:12;5.63;;;2.70;;
44476;SDS011;30180;44.788;10.366;2022-07-05T08:16:40;5.03;;;2.95;;
44476;SDS011;30180;44.788;10.366;2022-07-05T08:19:15;5.45;;;3.42;;
44476;SDS011;30180;44.788;10.366;2022-07-05T08:22:03;4.57;;;2.67;;
44476;SDS011;30180;44.788;10.366;2022-07-05T08:24:34;4.45;;;2.58;;
44476;SDS011;30180;44.788;10.366;2022-07-05T08:27:03;5.38;;;2.95;;
44476;SDS011;30180;44.788;10.366;2022-07-05T08:29:31;4.82;;;2.75;;
44476;SDS011;30180;44.788;10.366;2022-07-05T08:31:59;6.10;;;3.00;;
44476;SDS011;30180;44.788;10.366;2022-07-05T08:34:28;4.78;;;2.92;;
44476;SDS011;30180;44.788;10.366;2022-07-05T08:36:56;6.32;;;3.00;;
44476;SDS011;30180;44.788;10.366;2022-07-05T08:39:25;6.32;;;2.92;;
44476;SDS011;30180;44.788;10.366;2022-07-05T08:41:54;6.03;;;2.67;;
44476;SDS011;30180;44.788;10.366;2022-07-05T08:44:24;4.87;;;2.70;;
44476;SDS011;30180;44.788;10.366;2022-07-05T08:46:56;4.85;;;2.67;;
44476;SDS011;30180;44.788;10.366;2022-07-05T08:49:25;5.55;;;2.92;;
44476;SDS011;30180;44.788;10.366;2022-07-05T08:51:54;4.78;;;2.72;;
44476;SDS011;30180;44.788;10.366;2022-07-05T08:54:23;5.25;;;2.83;;
44476;SDS011;30180;44.788;10.366;2022-07-05T08:56:53;6.37;;;2.93;;
44476;SDS011;30180;44.788;10.366;2022-07-05T08:59:39;5.70;;;3.00;;
44476;SDS011;30180;44.788;10.366;2022-07-05T09:02:10;6.22;;;3.17;;
44476;SDS011;30180;44.788;10.366;2022-07-05T09:04:42;6.55;;;3.20;;
44476;SDS011;30180;44.788;10.366;2022-07-05T09:07:15;6.13;;;3.20;;
44476;SDS011;30180;44.788;10.366;2022-07-05T09:12:18;7.40;;;3.00;;
44476;SDS011;30180;44.788;10.366;2022-07-05T09:14:50;5.15;;;3.25;;
44476;SDS011;30180;44.788;10.366;2022-07-05T09:17:20;6.75;;;3.22;;
44476;SDS011;30180;44.788;10.366;2022-07-05T09:20:08;10.52;;;3.30;;
44476;SDS011;30180;44.788;10.366;2022-07-05T09:22:42;7.55;;;3.50;;
44476;SDS011;30180;44.788;10.366;2022-07-05T09:25:14;5.70;;;3.22;;
44476;SDS011;30180;44.788;10.366;2022-07-05T09:27:47;5.97;;;3.35;;
44476;SDS011;30180;44.788;10.366;2022-07-05T09:30:29;6.63;;;3.15;;
44476;SDS011;30180;44.788;10.366;2022-07-05T09:33:01;5.47;;;3.20;;
44476;SDS011;30180;44.788;10.366;2022-07-05T09:35:31;5.70;;;3.30;;
44476;SDS011;30180;44.788;10.366;2022-07-05T09:38:00;6.57;;;3.15;;
44476;SDS011;30180;44.788;10.366;2022-07-05T09:40:32;5.60;;;3.20;;
44476;SDS011;30180;44.788;10.366;2022-07-05T09:43:10;6.35;;;3.00;;
44476;SDS011;30180;44.788;10.366;2022-07-05T09:45:39;4.68;;;2.53;;
44476;SDS011;30180;44.788;10.366;2022-07-05T09:48:16;8.15;;;3.30;;
44476;SDS011;30180;44.788;10.366;2022-07-05T09:51:05;6.50;;;2.88;;
44476;SDS011;30180;44.788;10.366;2022-07-05T09:53:56;6.22;;;3.08;;
44476;SDS011;30180;44.788;10.366;2022-07-05T09:56:30;10.60;;;2.60;;
44476;SDS011;30180;44.788;10.366;2022-07-05T09:59:11;4.65;;;3.00;;
44476;SDS011;30180;44.788;10.366;2022-07-05T10:01:41;4.70;;;2.90;;
44476;SDS011;30180;44.788;10.366;2022-07-05T10:04:09;6.63;;;3.50;;
44476;SDS011;30180;44.788;10.366;2022-07-05T10:06:38;6.90;;;3.10;;
44476;SDS011;30180;44.788;10.366;2022-07-05T10:09:06;5.50;;;3.22;;
44476;SDS011;30180;44.788;10.366;2022-07-05T10:11:39;5.88;;;2.78;;
44476;SDS011;30180;44.788;10.366;2022-07-05T10:14:10;5.85;;;3.30;;
44476;SDS011;30180;44.788;10.366;2022-07-05T10:16:42;6.72;;;3.30;;
44476;SDS011;30180;44.788;10.366;2022-07-05T10:19:18;9.07;;;3.40;;
44476;SDS011;30180;44.788;10.366;2022-07-05T10:24:36;5.45;;;3.00;;
44476;SDS011;30180;44.788;10.366;2022-07-05T10:27:07;5.05;;;2.95;;
44476;SDS011;30180;44.788;10.366;2022-07-05T10:29:36;5.57;;;3.28;;
44476;SDS011;30180;44.788;10.366;2022-07-05T10:32:05;5.30;;;3.08;;
44476;SDS011;30180;44.788;10.366;2022-07-05T10:34:36;4.80;;;3.53;;
44476;SDS011;30180;44.788;10.366;2022-07-05T10:37:24;4.28;;;3.05;;
44476;SDS011;30180;44.788;10.366;2022-07-05T10:39:55;4.75;;;3.45;;
44476;SDS011;30180;44.788;10.366;2022-07-05T10:42:26;6.57;;;3.60;;
44476;SDS011;30180;44.788;10.366;2022-07-05T10:44:58;5.07;;;3.30;;
44476;SDS011;30180;44.788;10.366;2022-07-05T10:47:27;5.93;;;3.47;;
44476;SDS011;30180;44.788;10.366;2022-07-05T10:50:00;5.85;;;3.67;;
44476;SDS011;30180;44.788;10.366;2022-07-05T10:52:30;6.28;;;3.50;;
44476;SDS011;30180;44.788;10.366;2022-07-05T10:55:18;5.60;;;3.60;;
44476;SDS011;30180;44.788;10.366;2022-07-05T11:01:30;5.97;;;3.60;;
44476;SDS011;30180;44.788;10.366;2022-07-05T11:04:06;6.68;;;3.30;;
44476;SDS011;30180;44.788;10.366;2022-07-05T11:06:41;5.47;;;3.30;;
44476;SDS011;30180;44.788;10.366;2022-07-05T11:09:13;5.50;;;4.35;;
44476;SDS011;30180;44.788;10.366;2022-07-05T11:11:43;5.03;;;3.20;;
44476;SDS011;30180;44.788;10.366;2022-07-05T11:14:35;5.43;;;3.70;;
44476;SDS011;30180;44.788;10.366;2022-07-05T11:17:11;5.60;;;3.92;;
44476;SDS011;30180;44.788;10.366;2022-07-05T11:20:10;5.60;;;3.95;;
44476;SDS011;30180;44.788;10.366;2022-07-05T11:22:40;6.95;;;3.50;;
44476;SDS011;30180;44.788;10.366;2022-07-05T11:25:28;5.57;;;3.65;;
44476;SDS011;30180;44.788;10.366;2022-07-05T11:28:04;5.05;;;3.80;;
44476;SDS011;30180;44.788;10.366;2022-07-05T11:30:48;6.95;;;3.88;;
44476;SDS011;30180;44.788;10.366;2022-07-05T11:36:20;5.22;;;3.53;;
44476;SDS011;30180;44.788;10.366;2022-07-05T11:41:43;5.28;;;3.72;;
44476;SDS011;30180;44.788;10.366;2022-07-05T11:44:12;5.43;;;3.67;;
44476;SDS011;30180;44.788;10.366;2022-07-05T11:46:44;4.75;;;3.58;;
44476;SDS011;30180;44.788;10.366;2022-07-05T11:49:21;5.28;;;3.30;;
44476;SDS011;30180;44.788;10.366;2022-07-05T11:51:54;4.60;;;3.50;;
44476;SDS011;30180;44.788;10.366;2022-07-05T11:54:24;5.97;;;3.70;;
44476;SDS011;30180;44.788;10.366;2022-07-05T11:56:53;5.07;;;3.42;;
44476;SDS011;30180;44.788;10.366;2022-07-05T11:59:23;4.95;;;3.33;;
44476;SDS011;30180;44.788;10.366;2022-07-05T12:01:53;4.97;;;3.03;;
44476;SDS011;30180;44.788;10.366;2022-07-05T12:06:51;4.57;;;3.20;;
44476;SDS011;30180;44.788;10.366;2022-07-05T12:09:22;7.25;;;3.20;;
44476;SDS011;30180;44.788;10.366;2022-07-05T12:11:51;5.35;;;3.47;;
44476;SDS011;30180;44.788;10.366;2022-07-05T12:14:37;5.00;;;3.30;;
44476;SDS011;30180;44.788;10.366;2022-07-05T12:17:17;5.35;;;3.53;;
44476;SDS011;30180;44.788;10.366;2022-07-05T12:19:52;6.65;;;3.00;;
44476;SDS011;30180;44.788;10.366;2022-07-05T12:22:28;5.82;;;3.47;;
44476;SDS011;30180;44.788;10.366;2022-07-05T12:24:57;5.20;;;3.35;;
44476;SDS011;30180;44.788;10.366;2022-07-05T12:27:27;5.10;;;3.35;;
44476;SDS011;30180;44.788;10.366;2022-07-05T12:29:56;5.97;;;3.20;;
44476;SDS011;30180;44.788;10.366;2022-07-05T12:32:27;4.47;;;3.28;;
44476;SDS011;30180;44.788;10.366;2022-07-05T12:34:56;4.45;;;3.22;;
44476;SDS011;30180;44.788;10.366;2022-07-05T12:37:32;5.13;;;3.15;;
44476;SDS011;30180;44.788;10.366;2022-07-05T12:40:04;4.28;;;2.72;;
44476;SDS011;30180;44.788;10.366;2022-07-05T12:42:34;5.93;;;2.85;;
44476;SDS011;30180;44.788;10.366;2022-07-05T12:45:08;4.35;;;2.60;;
44476;SDS011;30180;44.788;10.366;2022-07-05T12:47:48;4.18;;;2.92;;
44476;SDS011;30180;44.788;10.366;2022-07-05T12:50:20;4.00;;;2.75;;
44476;SDS011;30180;44.788;10.366;2022-07-05T12:52:57;4.45;;;2.63;;
44476;SDS011;30180;44.788;10.366;2022-07-05T12:55:34;4.60;;;2.90;;
44476;SDS011;30180;44.788;10.366;2022-07-05T12:58:20;5.28;;;3.10;;
44476;SDS011;30180;44.788;10.366;2022-07-05T13:00:48;4.28;;;2.67;;
44476;SDS011;30180;44.788;10.366;2022-07-05T13:03:18;4.45;;;2.63;;
44476;SDS011;30180;44.788;10.366;2022-07-05T13:05:59;2.83;;;2.30;;
44476;SDS011;30180;44.788;10.366;2022-07-05T13:08:29;4.40;;;2.33;;
44476;SDS011;30180;44.788;10.366;2022-07-05T13:10:57;5.47;;;2.55;;
44476;SDS011;30180;44.788;10.366;2022-07-05T13:13:26;4.80;;;2.55;;
44476;SDS011;30180;44.788;10.366;2022-07-05T13:15:55;4.68;;;2.33;;
44476;SDS011;30180;44.788;10.366;2022-07-05T13:18:28;4.47;;;2.53;;
44476;SDS011;30180;44.788;10.366;2022-07-05T13:20:58;4.53;;;2.85;;
44476;SDS011;30180;44.788;10.366;2022-07-05T13:23:26;3.97;;;2.40;;
44476;SDS011;30180;44.788;10.366;2022-07-05T13:25:55;4.03;;;2.33;;
44476;SDS011;30180;44.788;10.366;2022-07-05T13:28:24;4.78;;;2.80;;
44476;SDS011;30180;44.788;10.366;2022-07-05T13:30:52;3.97;;;2.50;;
44476;SDS011;30180;44.788;10.366;2022-07-05T13:33:20;5.65;;;2.47;;
44476;SDS011;30180;44.788;10.366;2022-07-05T13:35:56;4.68;;;2.95;;
44476;SDS011;30180;44.788;10.366;2022-07-05T13:38:24;5.78;;;2.65;;
44476;SDS011;30180;44.788;10.366;2022-07-05T13:40:52;4.63;;;2.40;;
44476;SDS011;30180;44.788;10.366;2022-07-05T13:43:20;4.43;;;2.67;;
44476;SDS011;30180;44.788;10.366;2022-07-05T13:45:49;5.78;;;2.70;;
44476;SDS011;30180;44.788;10.366;2022-07-05T13:48:17;5.13;;;2.67;;
44476;SDS011;30180;44.788;10.366;2022-07-05T13:50:45;4.30;;;2.35;;
44476;SDS011;30180;44.788;10.366;2022-07-05T13:53:15;5.15;;;2.70;;
44476;SDS011;30180;44.788;10.366;2022-07-05T13:55:43;3.13;;;2.42;;
44476;SDS011;30180;44.788;10.366;2022-07-05T13:58:11;4.47;;;2.90;;
44476;SDS011;30180;44.788;10.366;2022-07-05T14:00:39;4.95;;;2.38;;
44476;SDS011;30180;44.788;10.366;2022-07-05T14:03:08;4.53;;;2.65;;
44476;SDS011;30180;44.788;10.366;2022-07-05T14:05:36;6.63;;;2.60;;
44476;SDS011;30180;44.788;10.366;2022-07-05T14:08:04;4.60;;;2.45;;
44476;SDS011;30180;44.788;10.366;2022-07-05T14:10:34;3.25;;;2.22;;
44476;SDS011;30180;44.788;10.366;2022-07-05T14:13:02;5.28;;;2.75;;
44476;SDS011;30180;44.788;10.366;2022-07-05T14:15:31;5.15;;;2.88;;
44476;SDS011;30180;44.788;10.366;2022-07-05T14:17:59;5.75;;;2.47;;
44476;SDS011;30180;44.788;10.366;2022-07-05T14:20:28;4.20;;;2.63;;
44476;SDS011;30180;44.788;10.366;2022-07-05T14:22:57;5.88;;;2.60;;
44476;SDS011;30180;44.788;10.366;2022-07-05T14:25:25;3.70;;;2.38;;
44476;SDS011;30180;44.788;10.366;2022-07-05T14:27:55;6.40;;;2.70;;
44476;SDS011;30180;44.788;10.366;2022-07-05T14:30:23;4.85;;;2.50;;
44476;SDS011;30180;44.788;10.366;2022-07-05T14:32:53;3.97;;;2.60;;
44476;SDS011;30180;44.788;10.366;2022-07-05T14:35:21;3.88;;;2.65;;
44476;SDS011;30180;44.788;10.366;2022-07-05T14:37:50;5.63;;;2.78;;
44476;SDS011;30180;44.788;10.366;2022-07-05T14:40:18;5.32;;;2.70;;
44476;SDS011;30180;44.788;10.366;2022-07-05T14:42:47;4.45;;;2.53;;
44476;SDS011;30180;44.788;10.366;2022-07-05T14:45:17;4.40;;;2.85;;
44476;SDS011;30180;44.788;10.366;2022-07-05T14:47:53;4.43;;;2.70;;
44476;SDS011;30180;44.788;10.366;2022-07-05T14:50:22;4.07;;;2.80;;
44476;SDS011;30180;44.788;10.366;2022-07-05T14:52:50;3.97;;;2.80;;
44476;SDS011;30180;44.788;10.366;2022-07-05T14:55:18;4.90;;;2.80;;
44476;SDS011;30180;44.788;10.366;2022-07-05T14:57:46;4.70;;;2.58;;
44476;SDS011;30180;44.788;10.366;2022-07-05T15:00:16;4.75;;;2.85;;
44476;SDS011;30180;44.788;10.366;2022-07-05T15:02:44;5.53;;;2.70;;
44476;SDS011;30180;44.788;10.366;2022-07-05T15:05:13;3.90;;;2.80;;
44476;SDS011;30180;44.788;10.366;2022-07-05T15:07:41;5.30;;;2.55;;
44476;SDS011;30180;44.788;10.366;2022-07-05T15:10:10;3.63;;;2.33;;
44476;SDS011;30180;44.788;10.366;2022-07-05T15:12:38;5.15;;;3.00;;